Airport View

Enter AWOS ICAO identifier for current METAR.

ex. KFNL

KRNT 190553Z AUTO 14006KT 10SM SCT018 BKN035 OVC060 14/12 A3007 RMK AO2 SLP188 60005 T01440117 10183 20139 58001

19 Apr 2019 06:56

Phone: 425-255-6080

Other Area AWOS: KBFI - KSEA - KTIW - KPWT

TAF KBFI 190539Z 1906/2006 20005KT P6SM -RA OVC050 FM190900 17009KT P6SM VCSH SCT020 OVC030 FM191400 18008KT P6SM -RA SCT025 OVC030 FM192200 19007KT P6SM VCSH OVC030 FM200300 34004KT P6SM OVC050